sensor_id;sensor_type;location;lat;lon;timestamp;temperature;humidity
46890;DHT22;32625;51.080;16.970;2022-09-09T00:00:17;15.60;99.90
46890;DHT22;32625;51.080;16.970;2022-09-09T00:03:02;15.50;99.90
46890;DHT22;32625;51.080;16.970;2022-09-09T00:11:40;15.50;99.90
46890;DHT22;32625;51.080;16.970;2022-09-09T00:17:52;15.50;99.90
46890;DHT22;32625;51.080;16.970;2022-09-09T00:20:35;15.40;99.90
46890;DHT22;32625;51.080;16.970;2022-09-09T00:26:51;15.30;99.90
46890;DHT22;32625;51.080;16.970;2022-09-09T00:30:00;15.40;99.90
46890;DHT22;32625;51.080;16.970;2022-09-09T00:32:30;15.30;99.90
46890;DHT22;32625;51.080;16.970;2022-09-09T00:37:48;15.20;99.90
46890;DHT22;32625;51.080;16.970;2022-09-09T00:40:33;15.20;99.90
46890;DHT22;32625;51.080;16.970;2022-09-09T00:43:33;15.10;99.90
46890;DHT22;32625;51.080;16.970;2022-09-09T00:55:48;15.10;99.90
46890;DHT22;32625;51.080;16.970;2022-09-09T00:58:47;15.10;99.90
46890;DHT22;32625;51.080;16.970;2022-09-09T01:01:22;15.10;99.90
46890;DHT22;32625;51.080;16.970;2022-09-09T01:07:20;15.10;99.90
46890;DHT22;32625;51.080;16.970;2022-09-09T01:09:55;14.80;99.90
46890;DHT22;32625;51.080;16.970;2022-09-09T01:12:43;15.00;99.90
46890;DHT22;32625;51.080;16.970;2022-09-09T01:15:32;14.90;99.90
46890;DHT22;32625;51.080;16.970;2022-09-09T01:18:08;14.90;99.90
46890;DHT22;32625;51.080;16.970;2022-09-09T01:24:09;14.90;99.90
46890;DHT22;32625;51.080;16.970;2022-09-09T01:27:10;14.90;99.90
46890;DHT22;32625;51.080;16.970;2022-09-09T01:29:39;14.90;99.90
46890;DHT22;32625;51.080;16.970;2022-09-09T01:38:44;14.90;99.90
46890;DHT22;32625;51.080;16.970;2022-09-09T01:41:12;14.80;99.90
46890;DHT22;32625;51.080;16.970;2022-09-09T01:44:11;14.80;99.90
46890;DHT22;32625;51.080;16.970;2022-09-09T01:46:42;14.80;99.90
46890;DHT22;32625;51.080;16.970;2022-09-09T01:49:29;14.70;99.90
46890;DHT22;32625;51.080;16.970;2022-09-09T01:51:57;14.80;99.90
46890;DHT22;32625;51.080;16.970;2022-09-09T01:54:36;14.80;99.90
46890;DHT22;32625;51.080;16.970;2022-09-09T01:57:22;14.80;99.90
46890;DHT22;32625;51.080;16.970;2022-09-09T02:00:25;14.80;99.90
46890;DHT22;32625;51.080;16.970;2022-09-09T02:03:29;14.70;99.90
46890;DHT22;32625;51.080;16.970;2022-09-09T02:09:04;14.70;99.90
46890;DHT22;32625;51.080;16.970;2022-09-09T02:11:44;14.70;99.90
46890;DHT22;32625;51.080;16.970;2022-09-09T02:14:28;14.60;99.90
46890;DHT22;32625;51.080;16.970;2022-09-09T02:17:07;14.70;99.90
46890;DHT22;32625;51.080;16.970;2022-09-09T02:20:15;14.70;99.90
46890;DHT22;32625;51.080;16.970;2022-09-09T02:22:50;14.70;99.90
46890;DHT22;32625;51.080;16.970;2022-09-09T02:25:22;14.60;99.90
46890;DHT22;32625;51.080;16.970;2022-09-09T02:28:00;14.60;99.90
46890;DHT22;32625;51.080;16.970;2022-09-09T02:30:34;14.60;99.90
46890;DHT22;32625;51.080;16.970;2022-09-09T02:36:41;14.60;99.90
46890;DHT22;32625;51.080;16.970;2022-09-09T02:39:11;14.60;99.90
46890;DHT22;32625;51.080;16.970;2022-09-09T02:41:43;14.60;99.90
46890;DHT22;32625;51.080;16.970;2022-09-09T02:44:12;14.50;99.90
46890;DHT22;32625;51.080;16.970;2022-09-09T02:49:40;14.50;99.90
46890;DHT22;32625;51.080;16.970;2022-09-09T02:52:18;14.50;99.90
46890;DHT22;32625;51.080;16.970;2022-09-09T02:58:04;14.50;99.90
46890;DHT22;32625;51.080;16.970;2022-09-09T03:03:59;14.50;99.90
46890;DHT22;32625;51.080;16.970;2022-09-09T03:06:26;14.50;99.90
46890;DHT22;32625;51.080;16.970;2022-09-09T03:12:29;14.40;99.90
46890;DHT22;32625;51.080;16.970;2022-09-09T03:15:04;14.40;99.90
46890;DHT22;32625;51.080;16.970;2022-09-09T03:17:32;14.30;99.90
46890;DHT22;32625;51.080;16.970;2022-09-09T03:20:02;14.30;99.90
46890;DHT22;32625;51.080;16.970;2022-09-09T03:23:08;14.30;99.90
46890;DHT22;32625;51.080;16.970;2022-09-09T03:25:49;14.20;99.90
46890;DHT22;32625;51.080;16.970;2022-09-09T03:28:28;14.10;99.90
46890;DHT22;32625;51.080;16.970;2022-09-09T03:31:04;14.10;99.90
46890;DHT22;32625;51.080;16.970;2022-09-09T03:33:38;14.00;99.90
46890;DHT22;32625;51.080;16.970;2022-09-09T03:36:06;13.90;99.90
46890;DHT22;32625;51.080;16.970;2022-09-09T03:38:38;14.00;99.90
46890;DHT22;32625;51.080;16.970;2022-09-09T03:41:07;14.00;99.90
46890;DHT22;32625;51.080;16.970;2022-09-09T03:43:36;13.90;99.90
46890;DHT22;32625;51.080;16.970;2022-09-09T03:46:04;13.80;99.90
46890;DHT22;32625;51.080;16.970;2022-09-09T03:48:59;13.80;99.90
46890;DHT22;32625;51.080;16.970;2022-09-09T03:51:31;13.90;99.90
46890;DHT22;32625;51.080;16.970;2022-09-09T03:54:19;13.80;99.90
46890;DHT22;32625;51.080;16.970;2022-09-09T03:56:47;13.70;99.90
46890;DHT22;32625;51.080;16.970;2022-09-09T03:59:46;13.70;99.90
46890;DHT22;32625;51.080;16.970;2022-09-09T04:02:14;13.70;99.90
46890;DHT22;32625;51.080;16.970;2022-09-09T04:04:42;13.70;99.90
46890;DHT22;32625;51.080;16.970;2022-09-09T04:07:11;13.70;99.90
46890;DHT22;32625;51.080;16.970;2022-09-09T04:09:39;13.70;99.90
46890;DHT22;32625;51.080;16.970;2022-09-09T04:12:37;13.70;99.90
46890;DHT22;32625;51.080;16.970;2022-09-09T04:15:05;13.70;99.90
46890;DHT22;32625;51.080;16.970;2022-09-09T04:17:36;13.70;99.90
46890;DHT22;32625;51.080;16.970;2022-09-09T04:20:12;13.60;99.90
46890;DHT22;32625;51.080;16.970;2022-09-09T04:22:40;13.60;99.90
46890;DHT22;32625;51.080;16.970;2022-09-09T04:25:10;13.60;99.90
46890;DHT22;32625;51.080;16.970;2022-09-09T04:27:39;13.60;99.90
46890;DHT22;32625;51.080;16.970;2022-09-09T04:30:07;13.60;99.90
46890;DHT22;32625;51.080;16.970;2022-09-09T04:32:35;13.60;99.90
46890;DHT22;32625;51.080;16.970;2022-09-09T04:35:05;13.60;99.90
46890;DHT22;32625;51.080;16.970;2022-09-09T04:37:34;13.50;99.90
46890;DHT22;32625;51.080;16.970;2022-09-09T04:40:01;13.60;99.90
46890;DHT22;32625;51.080;16.970;2022-09-09T04:42:36;13.50;99.90
46890;DHT22;32625;51.080;16.970;2022-09-09T04:45:06;13.50;99.90
46890;DHT22;32625;51.080;16.970;2022-09-09T04:47:37;13.50;99.90
46890;DHT22;32625;51.080;16.970;2022-09-09T04:50:07;13.40;99.90
46890;DHT22;32625;51.080;16.970;2022-09-09T04:52:36;13.50;99.90
46890;DHT22;32625;51.080;16.970;2022-09-09T04:55:10;13.50;99.90
46890;DHT22;32625;51.080;16.970;2022-09-09T04:57:38;13.40;99.90
46890;DHT22;32625;51.080;16.970;2022-09-09T05:00:06;13.40;99.90
46890;DHT22;32625;51.080;16.970;2022-09-09T05:02:38;13.50;99.90
46890;DHT22;32625;51.080;16.970;2022-09-09T05:05:10;13.50;99.90
46890;DHT22;32625;51.080;16.970;2022-09-09T05:07:40;13.50;99.90
46890;DHT22;32625;51.080;16.970;2022-09-09T05:10:12;13.50;99.90
46890;DHT22;32625;51.080;16.970;2022-09-09T05:12:55;13.60;99.90
46890;DHT22;32625;51.080;16.970;2022-09-09T05:15:54;13.50;99.90
46890;DHT22;32625;51.080;16.970;2022-09-09T05:18:22;13.60;99.90
46890;DHT22;32625;51.080;16.970;2022-09-09T05:20:49;13.60;99.90
46890;DHT22;32625;51.080;16.970;2022-09-09T05:23:18;13.70;99.90
46890;DHT22;32625;51.080;16.970;2022-09-09T05:25:56;13.70;99.90
46890;DHT22;32625;51.080;16.970;2022-09-09T05:28:26;13.70;99.90
46890;DHT22;32625;51.080;16.970;2022-09-09T05:31:04;13.70;99.90
46890;DHT22;32625;51.080;16.970;2022-09-09T05:33:34;13.80;99.90
46890;DHT22;32625;51.080;16.970;2022-09-09T05:36:07;13.80;99.90
46890;DHT22;32625;51.080;16.970;2022-09-09T05:38:35;13.90;99.90
46890;DHT22;32625;51.080;16.970;2022-09-09T05:41:03;13.90;99.90
46890;DHT22;32625;51.080;16.970;2022-09-09T05:43:31;13.90;99.90
46890;DHT22;32625;51.080;16.970;2022-09-09T05:46:05;14.00;99.90
46890;DHT22;32625;51.080;16.970;2022-09-09T05:48:35;14.00;99.90
46890;DHT22;32625;51.080;16.970;2022-09-09T05:51:05;14.00;99.90
46890;DHT22;32625;51.080;16.970;2022-09-09T05:53:36;14.10;99.90
46890;DHT22;32625;51.080;16.970;2022-09-09T05:56:15;14.10;99.90
46890;DHT22;32625;51.080;16.970;2022-09-09T05:58:44;14.20;99.90
46890;DHT22;32625;51.080;16.970;2022-09-09T06:01:18;14.30;99.90
46890;DHT22;32625;51.080;16.970;2022-09-09T06:03:47;14.30;99.90
46890;DHT22;32625;51.080;16.970;2022-09-09T06:06:20;14.40;99.90
46890;DHT22;32625;51.080;16.970;2022-09-09T06:08:50;14.40;99.90
46890;DHT22;32625;51.080;16.970;2022-09-09T06:11:24;14.40;99.90
46890;DHT22;32625;51.080;16.970;2022-09-09T06:13:51;14.50;99.90
46890;DHT22;32625;51.080;16.970;2022-09-09T06:16:23;14.50;99.90
46890;DHT22;32625;51.080;16.970;2022-09-09T06:18:51;14.60;99.90
46890;DHT22;32625;51.080;16.970;2022-09-09T06:21:34;14.70;99.90
46890;DHT22;32625;51.080;16.970;2022-09-09T06:24:06;14.70;99.90
46890;DHT22;32625;51.080;16.970;2022-09-09T06:26:39;14.70;99.90
46890;DHT22;32625;51.080;16.970;2022-09-09T06:29:10;14.80;99.90
46890;DHT22;32625;51.080;16.970;2022-09-09T06:31:40;14.90;99.90
46890;DHT22;32625;51.080;16.970;2022-09-09T06:34:19;15.00;99.90
46890;DHT22;32625;51.080;16.970;2022-09-09T06:36:51;15.10;99.90
46890;DHT22;32625;51.080;16.970;2022-09-09T06:39:19;15.20;99.90
46890;DHT22;32625;51.080;16.970;2022-09-09T06:41:46;15.30;99.90
46890;DHT22;32625;51.080;16.970;2022-09-09T06:44:32;15.30;99.90
46890;DHT22;32625;51.080;16.970;2022-09-09T06:47:03;15.40;99.90
46890;DHT22;32625;51.080;16.970;2022-09-09T06:49:32;15.50;99.90
46890;DHT22;32625;51.080;16.970;2022-09-09T06:52:01;15.50;99.90
46890;DHT22;32625;51.080;16.970;2022-09-09T06:54:30;15.60;99.90
46890;DHT22;32625;51.080;16.970;2022-09-09T06:56:58;15.70;99.90
46890;DHT22;32625;51.080;16.970;2022-09-09T06:59:47;15.80;99.90
46890;DHT22;32625;51.080;16.970;2022-09-09T07:02:15;15.80;99.90
46890;DHT22;32625;51.080;16.970;2022-09-09T07:04:42;15.90;99.90
46890;DHT22;32625;51.080;16.970;2022-09-09T07:07:10;16.00;99.90
46890;DHT22;32625;51.080;16.970;2022-09-09T07:09:47;16.00;99.90
46890;DHT22;32625;51.080;16.970;2022-09-09T07:12:16;16.10;99.90
46890;DHT22;32625;51.080;16.970;2022-09-09T07:14:54;16.20;99.90
46890;DHT22;32625;51.080;16.970;2022-09-09T07:17:22;16.20;99.90
46890;DHT22;32625;51.080;16.970;2022-09-09T07:19:49;16.30;99.90
46890;DHT22;32625;51.080;16.970;2022-09-09T07:22:42;16.40;99.90
46890;DHT22;32625;51.080;16.970;2022-09-09T07:25:10;16.20;99.90
46890;DHT22;32625;51.080;16.970;2022-09-09T07:27:37;16.60;99.90
46890;DHT22;32625;51.080;16.970;2022-09-09T07:30:11;16.60;99.90
46890;DHT22;32625;51.080;16.970;2022-09-09T07:32:45;16.70;99.90
46890;DHT22;32625;51.080;16.970;2022-09-09T07:35:13;16.70;99.90
46890;DHT22;32625;51.080;16.970;2022-09-09T07:37:41;16.70;99.90
46890;DHT22;32625;51.080;16.970;2022-09-09T07:40:08;16.70;99.90
46890;DHT22;32625;51.080;16.970;2022-09-09T07:42:35;16.70;99.90
46890;DHT22;32625;51.080;16.970;2022-09-09T07:45:04;16.80;99.90
46890;DHT22;32625;51.080;16.970;2022-09-09T07:47:32;16.90;99.90
46890;DHT22;32625;51.080;16.970;2022-09-09T07:50:01;16.90;99.90
46890;DHT22;32625;51.080;16.970;2022-09-09T07:52:31;17.00;99.90
46890;DHT22;32625;51.080;16.970;2022-09-09T07:55:02;17.00;99.90
46890;DHT22;32625;51.080;16.970;2022-09-09T07:57:32;17.00;99.90
46890;DHT22;32625;51.080;16.970;2022-09-09T08:00:00;17.00;99.90
46890;DHT22;32625;51.080;16.970;2022-09-09T08:02:27;17.00;99.90
46890;DHT22;32625;51.080;16.970;2022-09-09T08:04:58;17.00;99.90
46890;DHT22;32625;51.080;16.970;2022-09-09T08:07:25;17.00;99.90
46890;DHT22;32625;51.080;16.970;2022-09-09T08:09:54;17.00;99.90
46890;DHT22;32625;51.080;16.970;2022-09-09T08:12:27;17.00;99.90
46890;DHT22;32625;51.080;16.970;2022-09-09T08:14:55;17.10;99.90
46890;DHT22;32625;51.080;16.970;2022-09-09T08:17:27;17.20;99.90
46890;DHT22;32625;51.080;16.970;2022-09-09T08:20:01;17.20;99.90
46890;DHT22;32625;51.080;16.970;2022-09-09T08:22:34;17.30;99.90
46890;DHT22;32625;51.080;16.970;2022-09-09T08:25:02;17.40;99.90
46890;DHT22;32625;51.080;16.970;2022-09-09T08:27:31;17.40;99.90
46890;DHT22;32625;51.080;16.970;2022-09-09T08:29:59;17.40;99.90
46890;DHT22;32625;51.080;16.970;2022-09-09T08:32:28;17.50;99.90
46890;DHT22;32625;51.080;16.970;2022-09-09T08:34:56;17.60;99.90
46890;DHT22;32625;51.080;16.970;2022-09-09T08:37:29;17.60;99.90
46890;DHT22;32625;51.080;16.970;2022-09-09T08:39:56;17.70;99.90
46890;DHT22;32625;51.080;16.970;2022-09-09T08:42:38;17.80;99.90
46890;DHT22;32625;51.080;16.970;2022-09-09T08:45:37;17.80;99.90
46890;DHT22;32625;51.080;16.970;2022-09-09T08:48:21;17.80;99.90
46890;DHT22;32625;51.080;16.970;2022-09-09T08:50:51;17.80;99.90
46890;DHT22;32625;51.080;16.970;2022-09-09T08:53:28;17.90;99.90
46890;DHT22;32625;51.080;16.970;2022-09-09T08:56:03;17.90;99.90
46890;DHT22;32625;51.080;16.970;2022-09-09T08:58:50;17.80;99.90
46890;DHT22;32625;51.080;16.970;2022-09-09T09:12:02;18.20;99.90
46890;DHT22;32625;51.080;16.970;2022-09-09T09:14:36;18.30;99.90
46890;DHT22;32625;51.080;16.970;2022-09-09T09:17:16;18.40;99.90
46890;DHT22;32625;51.080;16.970;2022-09-09T09:19:44;18.40;99.90
46890;DHT22;32625;51.080;16.970;2022-09-09T09:22:22;18.40;99.90
46890;DHT22;32625;51.080;16.970;2022-09-09T09:27:34;18.40;99.90
46890;DHT22;32625;51.080;16.970;2022-09-09T09:30:15;18.50;99.90
46890;DHT22;32625;51.080;16.970;2022-09-09T09:33:02;18.60;99.90
46890;DHT22;32625;51.080;16.970;2022-09-09T09:35:31;18.60;99.90
46890;DHT22;32625;51.080;16.970;2022-09-09T09:38:26;18.60;99.90
46890;DHT22;32625;51.080;16.970;2022-09-09T09:41:15;18.60;99.90
46890;DHT22;32625;51.080;16.970;2022-09-09T09:43:54;18.60;99.90
46890;DHT22;32625;51.080;16.970;2022-09-09T09:46:24;18.90;99.90
46890;DHT22;32625;51.080;16.970;2022-09-09T09:49:05;18.90;99.90
46890;DHT22;32625;51.080;16.970;2022-09-09T09:51:34;18.80;99.90
46890;DHT22;32625;51.080;16.970;2022-09-09T09:54:18;18.80;99.90
46890;DHT22;32625;51.080;16.970;2022-09-09T09:56:53;18.90;99.90
46890;DHT22;32625;51.080;16.970;2022-09-09T09:59:33;18.80;99.90
46890;DHT22;32625;51.080;16.970;2022-09-09T10:02:15;18.60;99.90
46890;DHT22;32625;51.080;16.970;2022-09-09T10:04:45;18.60;99.90
46890;DHT22;32625;51.080;16.970;2022-09-09T10:07:21;18.60;99.90
46890;DHT22;32625;51.080;16.970;2022-09-09T10:09:53;18.70;99.90
46890;DHT22;32625;51.080;16.970;2022-09-09T10:12:33;18.60;99.90
46890;DHT22;32625;51.080;16.970;2022-09-09T10:23:48;19.20;99.90
46890;DHT22;32625;51.080;16.970;2022-09-09T10:26:35;19.30;99.90
46890;DHT22;32625;51.080;16.970;2022-09-09T10:29:47;19.30;99.90
46890;DHT22;32625;51.080;16.970;2022-09-09T10:40:38;19.90;99.90
46890;DHT22;32625;51.080;16.970;2022-09-09T10:46:12;20.20;99.90
46890;DHT22;32625;51.080;16.970;2022-09-09T10:52:01;20.20;99.90
46890;DHT22;32625;51.080;16.970;2022-09-09T10:59:50;20.20;99.90
46890;DHT22;32625;51.080;16.970;2022-09-09T11:02:29;20.10;99.90
46890;DHT22;32625;51.080;16.970;2022-09-09T11:05:02;20.10;99.90
46890;DHT22;32625;51.080;16.970;2022-09-09T11:07:37;20.40;99.90
46890;DHT22;32625;51.080;16.970;2022-09-09T11:10:24;20.60;99.90
46890;DHT22;32625;51.080;16.970;2022-09-09T11:12:59;20.50;99.90
46890;DHT22;32625;51.080;16.970;2022-09-09T11:15:39;20.50;99.90
46890;DHT22;32625;51.080;16.970;2022-09-09T11:18:14;20.50;99.90
46890;DHT22;32625;51.080;16.970;2022-09-09T11:20:45;20.60;99.90
46890;DHT22;32625;51.080;16.970;2022-09-09T11:23:22;20.60;99.90
46890;DHT22;32625;51.080;16.970;2022-09-09T11:26:00;20.70;99.90
46890;DHT22;32625;51.080;16.970;2022-09-09T11:28:40;20.70;99.90
46890;DHT22;32625;51.080;16.970;2022-09-09T11:42:24;20.70;99.90
46890;DHT22;32625;51.080;16.970;2022-09-09T11:44:51;20.90;99.90
46890;DHT22;32625;51.080;16.970;2022-09-09T11:47:28;20.90;99.90
46890;DHT22;32625;51.080;16.970;2022-09-09T11:52:46;20.80;99.90
46890;DHT22;32625;51.080;16.970;2022-09-09T11:55:29;20.80;99.90
46890;DHT22;32625;51.080;16.970;2022-09-09T11:58:02;20.90;99.90
46890;DHT22;32625;51.080;16.970;2022-09-09T12:00:39;20.90;99.90
46890;DHT22;32625;51.080;16.970;2022-09-09T12:03:47;21.10;99.90
46890;DHT22;32625;51.080;16.970;2022-09-09T12:06:27;21.00;99.90
46890;DHT22;32625;51.080;16.970;2022-09-09T12:09:06;20.90;99.90
46890;DHT22;32625;51.080;16.970;2022-09-09T12:11:34;20.70;99.90
46890;DHT22;32625;51.080;16.970;2022-09-09T12:14:01;20.60;99.90
46890;DHT22;32625;51.080;16.970;2022-09-09T12:16:37;20.50;99.90
46890;DHT22;32625;51.080;16.970;2022-09-09T12:19:19;20.50;99.90
46890;DHT22;32625;51.080;16.970;2022-09-09T12:24:58;20.80;99.90
46890;DHT22;32625;51.080;16.970;2022-09-09T12:27:36;20.90;99.90
46890;DHT22;32625;51.080;16.970;2022-09-09T12:30:14;21.00;99.90
46890;DHT22;32625;51.080;16.970;2022-09-09T12:32:42;21.10;99.90
46890;DHT22;32625;51.080;16.970;2022-09-09T12:35:18;21.20;99.90
46890;DHT22;32625;51.080;16.970;2022-09-09T12:38:05;21.10;99.90
46890;DHT22;32625;51.080;16.970;2022-09-09T12:40:38;21.10;99.90
46890;DHT22;32625;51.080;16.970;2022-09-09T12:43:20;21.00;99.90
46890;DHT22;32625;51.080;16.970;2022-09-09T12:46:00;21.00;99.90
46890;DHT22;32625;51.080;16.970;2022-09-09T12:48:41;21.00;99.90
46890;DHT22;32625;51.080;16.970;2022-09-09T12:51:24;21.20;99.90
46890;DHT22;32625;51.080;16.970;2022-09-09T12:53:52;21.40;99.90
46890;DHT22;32625;51.080;16.970;2022-09-09T12:56:31;21.30;99.90
46890;DHT22;32625;51.080;16.970;2022-09-09T12:58:59;21.10;99.90
46890;DHT22;32625;51.080;16.970;2022-09-09T13:01:32;21.00;99.90
46890;DHT22;32625;51.080;16.970;2022-09-09T13:04:19;20.90;99.90
46890;DHT22;32625;51.080;16.970;2022-09-09T13:06:47;20.80;99.90
46890;DHT22;32625;51.080;16.970;2022-09-09T13:12:34;20.80;99.90
46890;DHT22;32625;51.080;16.970;2022-09-09T13:15:01;21.00;99.90
46890;DHT22;32625;51.080;16.970;2022-09-09T13:20:58;20.90;99.90
46890;DHT22;32625;51.080;16.970;2022-09-09T13:23:33;21.00;99.90
46890;DHT22;32625;51.080;16.970;2022-09-09T13:26:23;21.10;99.90
46890;DHT22;32625;51.080;16.970;2022-09-09T13:29:18;21.20;99.90
46890;DHT22;32625;51.080;16.970;2022-09-09T13:31:46;21.20;99.90
46890;DHT22;32625;51.080;16.970;2022-09-09T13:34:30;21.20;99.90
46890;DHT22;32625;51.080;16.970;2022-09-09T13:37:03;21.00;99.90
46890;DHT22;32625;51.080;16.970;2022-09-09T13:39:35;20.90;99.90
46890;DHT22;32625;51.080;16.970;2022-09-09T13:42:04;20.80;99.90
46890;DHT22;32625;51.080;16.970;2022-09-09T13:44:36;20.90;99.90
46890;DHT22;32625;51.080;16.970;2022-09-09T13:49:41;21.40;99.90
46890;DHT22;32625;51.080;16.970;2022-09-09T13:52:18;21.40;99.90
46890;DHT22;32625;51.080;16.970;2022-09-09T13:54:52;21.30;99.90
46890;DHT22;32625;51.080;16.970;2022-09-09T13:57:25;21.30;99.90
46890;DHT22;32625;51.080;16.970;2022-09-09T13:59:53;21.40;99.90
46890;DHT22;32625;51.080;16.970;2022-09-09T14:02:37;21.50;99.90
46890;DHT22;32625;51.080;16.970;2022-09-09T14:05:07;21.50;99.90
46890;DHT22;32625;51.080;16.970;2022-09-09T14:07:35;21.60;99.90
46890;DHT22;32625;51.080;16.970;2022-09-09T14:10:02;21.80;99.90
46890;DHT22;32625;51.080;16.970;2022-09-09T14:12:29;22.20;99.90
46890;DHT22;32625;51.080;16.970;2022-09-09T14:14:56;22.40;99.90
46890;DHT22;32625;51.080;16.970;2022-09-09T14:17:23;22.50;99.90
46890;DHT22;32625;51.080;16.970;2022-09-09T14:19:51;22.70;99.90
46890;DHT22;32625;51.080;16.970;2022-09-09T14:22:19;22.70;99.90
46890;DHT22;32625;51.080;16.970;2022-09-09T14:24:46;22.40;99.90
46890;DHT22;32625;51.080;16.970;2022-09-09T14:27:13;22.10;99.90
46890;DHT22;32625;51.080;16.970;2022-09-09T14:29:40;22.20;99.90
46890;DHT22;32625;51.080;16.970;2022-09-09T14:32:07;22.30;99.90
46890;DHT22;32625;51.080;16.970;2022-09-09T14:34:38;22.20;99.90
46890;DHT22;32625;51.080;16.970;2022-09-09T14:37:05;22.10;99.90
46890;DHT22;32625;51.080;16.970;2022-09-09T14:39:33;21.90;99.90
46890;DHT22;32625;51.080;16.970;2022-09-09T14:42:00;21.70;99.90
46890;DHT22;32625;51.080;16.970;2022-09-09T14:44:27;21.60;99.90
46890;DHT22;32625;51.080;16.970;2022-09-09T14:46:55;21.40;99.90
46890;DHT22;32625;51.080;16.970;2022-09-09T14:49:22;21.30;99.90
46890;DHT22;32625;51.080;16.970;2022-09-09T14:51:49;21.40;99.90
46890;DHT22;32625;51.080;16.970;2022-09-09T14:54:16;21.20;99.90
46890;DHT22;32625;51.080;16.970;2022-09-09T14:56:44;21.10;99.90
46890;DHT22;32625;51.080;16.970;2022-09-09T14:59:11;21.00;99.90
46890;DHT22;32625;51.080;16.970;2022-09-09T15:01:40;21.00;99.90
46890;DHT22;32625;51.080;16.970;2022-09-09T15:04:10;20.90;99.90
46890;DHT22;32625;51.080;16.970;2022-09-09T15:06:38;20.90;99.90
46890;DHT22;32625;51.080;16.970;2022-09-09T15:09:05;20.80;99.90
46890;DHT22;32625;51.080;16.970;2022-09-09T15:11:35;20.80;99.90
46890;DHT22;32625;51.080;16.970;2022-09-09T15:14:06;20.80;99.90
46890;DHT22;32625;51.080;16.970;2022-09-09T15:16:34;20.70;99.90
46890;DHT22;32625;51.080;16.970;2022-09-09T15:19:02;20.60;99.90
46890;DHT22;32625;51.080;16.970;2022-09-09T15:21:31;20.60;99.90
46890;DHT22;32625;51.080;16.970;2022-09-09T15:23:59;20.60;99.90
46890;DHT22;32625;51.080;16.970;2022-09-09T15:26:27;20.50;99.90
46890;DHT22;32625;51.080;16.970;2022-09-09T15:28:54;20.50;99.90
46890;DHT22;32625;51.080;16.970;2022-09-09T15:31:23;20.50;99.90
46890;DHT22;32625;51.080;16.970;2022-09-09T15:33:58;20.40;99.90
46890;DHT22;32625;51.080;16.970;2022-09-09T15:36:34;20.40;99.90
46890;DHT22;32625;51.080;16.970;2022-09-09T15:39:03;20.40;99.90
46890;DHT22;32625;51.080;16.970;2022-09-09T15:41:31;20.40;99.90
46890;DHT22;32625;51.080;16.970;2022-09-09T15:43:58;20.30;99.90
46890;DHT22;32625;51.080;16.970;2022-09-09T15:46:38;20.30;99.90
46890;DHT22;32625;51.080;16.970;2022-09-09T15:51:39;20.20;99.90
46890;DHT22;32625;51.080;16.970;2022-09-09T15:54:11;20.10;99.90
46890;DHT22;32625;51.080;16.970;2022-09-09T15:56:39;20.00;99.90
46890;DHT22;32625;51.080;16.970;2022-09-09T15:59:07;20.00;99.90
46890;DHT22;32625;51.080;16.970;2022-09-09T16:01:35;19.90;99.90
46890;DHT22;32625;51.080;16.970;2022-09-09T16:04:02;19.90;99.90
46890;DHT22;32625;51.080;16.970;2022-09-09T16:06:31;19.90;99.90
46890;DHT22;32625;51.080;16.970;2022-09-09T16:08:59;19.80;99.90
46890;DHT22;32625;51.080;16.970;2022-09-09T16:11:32;19.80;99.90
46890;DHT22;32625;51.080;16.970;2022-09-09T16:13:59;19.80;99.90
46890;DHT22;32625;51.080;16.970;2022-09-09T16:16:29;19.80;99.90
46890;DHT22;32625;51.080;16.970;2022-09-09T16:19:03;19.80;99.90
46890;DHT22;32625;51.080;16.970;2022-09-09T16:21:39;19.80;99.90
46890;DHT22;32625;51.080;16.970;2022-09-09T16:24:09;19.70;99.90
46890;DHT22;32625;51.080;16.970;2022-09-09T16:26:38;19.60;99.90
46890;DHT22;32625;51.080;16.970;2022-09-09T16:29:06;19.60;99.90
46890;DHT22;32625;51.080;16.970;2022-09-09T16:31:33;19.60;99.90
46890;DHT22;32625;51.080;16.970;2022-09-09T16:34:00;19.60;99.90
46890;DHT22;32625;51.080;16.970;2022-09-09T16:36:31;19.50;99.90
46890;DHT22;32625;51.080;16.970;2022-09-09T16:39:04;19.50;99.90
46890;DHT22;32625;51.080;16.970;2022-09-09T16:41:32;19.50;99.90
46890;DHT22;32625;51.080;16.970;2022-09-09T16:44:02;19.40;99.90
46890;DHT22;32625;51.080;16.970;2022-09-09T16:46:32;19.40;99.90
46890;DHT22;32625;51.080;16.970;2022-09-09T16:49:00;19.40;99.90
46890;DHT22;32625;51.080;16.970;2022-09-09T16:51:33;19.30;99.90
46890;DHT22;32625;51.080;16.970;2022-09-09T16:54:02;19.20;99.90
46890;DHT22;32625;51.080;16.970;2022-09-09T16:56:31;19.20;99.90
46890;DHT22;32625;51.080;16.970;2022-09-09T16:59:04;19.20;99.90
46890;DHT22;32625;51.080;16.970;2022-09-09T17:01:34;19.20;99.90
46890;DHT22;32625;51.080;16.970;2022-09-09T17:04:07;19.10;99.90
46890;DHT22;32625;51.080;16.970;2022-09-09T17:06:35;19.10;99.90
46890;DHT22;32625;51.080;16.970;2022-09-09T17:09:06;19.00;99.90
46890;DHT22;32625;51.080;16.970;2022-09-09T17:11:34;19.00;99.90
46890;DHT22;32625;51.080;16.970;2022-09-09T17:14:04;19.00;99.90
46890;DHT22;32625;51.080;16.970;2022-09-09T17:16:33;19.00;99.90
46890;DHT22;32625;51.080;16.970;2022-09-09T17:19:02;18.90;99.90
46890;DHT22;32625;51.080;16.970;2022-09-09T17:21:31;18.90;99.90
46890;DHT22;32625;51.080;16.970;2022-09-09T17:23:59;18.90;99.90
46890;DHT22;32625;51.080;16.970;2022-09-09T17:26:28;18.90;99.90
46890;DHT22;32625;51.080;16.970;2022-09-09T17:28:57;18.90;99.90
46890;DHT22;32625;51.080;16.970;2022-09-09T17:31:28;18.80;99.90
46890;DHT22;32625;51.080;16.970;2022-09-09T17:33:55;18.80;99.90
46890;DHT22;32625;51.080;16.970;2022-09-09T17:36:26;18.90;99.90
46890;DHT22;32625;51.080;16.970;2022-09-09T17:38:54;18.80;99.90
46890;DHT22;32625;51.080;16.970;2022-09-09T17:41:37;18.80;99.90
46890;DHT22;32625;51.080;16.970;2022-09-09T17:44:06;18.80;99.90
46890;DHT22;32625;51.080;16.970;2022-09-09T17:46:42;18.80;99.90
46890;DHT22;32625;51.080;16.970;2022-09-09T17:49:12;18.70;99.90
46890;DHT22;32625;51.080;16.970;2022-09-09T17:54:33;18.70;99.90
46890;DHT22;32625;51.080;16.970;2022-09-09T17:57:00;18.60;99.90
46890;DHT22;32625;51.080;16.970;2022-09-09T17:59:33;18.60;99.90
46890;DHT22;32625;51.080;16.970;2022-09-09T18:02:00;18.60;99.90
46890;DHT22;32625;51.080;16.970;2022-09-09T18:04:27;18.60;99.90
46890;DHT22;32625;51.080;16.970;2022-09-09T18:10:14;18.60;99.90